Latest Weather Observations for Borroloola

IDD60801

Issued at 8:21 am CST Thursday 16 April 2026 (issued every 10 minutes, with the page automatically refreshed every 10 minutes)

About weather observations | Map of weather stations | Latest weather observations for NT | Other Formats
Station Details ID: 014723 Name: BORROLOOLA AIRPORT Lat: -16.08 Lon: 136.30 Height: 16.1 m
Data from the previous 72 hours. | See also: Recent months at Borroloola
Date/Time
CST
Temp
°C
App
Temp
°C
Dew
Point
°C
Rel
Hum
%
Delta-T
°C
Wind Press
QNH
hPa
Press
MSL
hPa
Rain since
9am
mm
Dir  Spd
km/h
Gust
km/h
Spd
kts
Gust
kts
16/08:00am 26.1 27.7 21.5 76 3.1 ESE 15 22 8 12 1012.0 1011.9 0.0
16/07:30am 25.8 27.2 21.0 75 3.2 ESE 15 20 8 11 1011.7 1011.6 0.0
16/07:00am 25.6 27.2 20.8 75 3.2 ESE 13 20 7 11 1011.3 1011.2 0.0
16/06:30am 25.3 27.0 21.0 77 2.8 ESE 13 19 7 10 1010.7 1010.6 0.0
16/06:00am 25.2 27.4 21.9 82 2.2 ESE 13 17 7 9 1010.5 1010.4 0.0
16/05:30am 25.2 27.6 22.3 84 1.9 ESE 13 20 7 11 1010.2 1010.1 0.0
16/05:00am 24.7 28.0 22.6 88 1.4 ESE 9 13 5 7 1009.9 1009.8 0.0
16/04:30am 24.7 27.6 22.4 87 1.5 SE 11 13 6 7 1009.7 1009.6 0.0
16/04:00am 25.3 28.6 22.6 85 1.8 SSE 9 11 5 6 1009.6 1009.5 0.0
16/03:30am 25.5 29.6 23.2 87 1.6 SSE 7 9 4 5 1009.8 1009.7 0.0
16/03:00am 25.8 29.7 22.9 84 2.0 SE 7 9 4 5 1009.5 1009.4 0.0
16/02:30am 25.6 29.4 22.7 84 2.0 ESE 7 11 4 6 1009.7 1009.6 0.0
16/02:00am 24.9 28.8 22.6 87 1.5 SE 6 7 3 4 1010.0 1009.9 0.0
16/01:30am 25.6 30.1 22.9 85 1.8 S 4 7 2 4 1010.2 1010.1 0.0
16/01:00am 25.9 29.6 22.6 82 2.2 SSE 7 9 4 5 1010.6 1010.5 0.0
16/12:30am 26.1 29.9 22.4 80 2.5 SE 6 9 3 5 1010.7 1010.6 0.0
16/12:00am 26.1 29.3 22.4 80 2.5 ESE 9 13 5 7 1011.1 1011.0 0.0
 
Date/Time
CST
Temp
°C
App
Temp
°C
Dew
Point
°C
Rel
Hum
%
Delta-T
°C
Wind Press
QNH
hPa
Press
MSL
hPa
Rain since
9am
mm
Dir  Spd
km/h
Gust
km/h
Spd
kts
Gust
kts
15/11:30pm 25.8 31.1 23.1 85 1.8 CALM 0 6 0 3 1011.3 1011.2 0.0
15/11:00pm 25.8 31.2 23.3 86 1.7 CALM 0 0 0 0 1011.2 1011.1 0.0
15/10:30pm 25.8 31.2 23.3 86 1.7 CALM 0 0 0 0 1011.2 1011.1 0.0
15/10:00pm 25.8 30.0 22.5 82 2.2 NE 4 9 2 5 1011.2 1011.1 0.0
15/09:30pm 25.7 29.3 22.0 80 2.5 NNE 6 9 3 5 1011.2 1011.1 0.0
15/09:00pm 25.6 28.5 21.1 76 3.0 NNE 7 9 4 5 1011.1 1011.0 0.0
15/08:30pm 25.7 28.5 20.9 75 3.2 NNE 7 11 4 6 1010.8 1010.7 0.0
15/08:00pm 26.4 29.1 20.7 71 3.7 NNE 7 11 4 6 1010.5 1010.4 0.0
15/07:30pm 27.1 28.9 20.4 66 4.4 NNE 11 15 6 8 1010.2 1010.1 0.0
15/07:00pm 27.6 30.3 21.4 69 4.1 NNE 9 11 5 6 1009.7 1009.6 0.0
15/06:30pm 28.3 31.2 21.8 68 4.4 NNE 9 11 5 6 1009.6 1009.5 0.0
15/06:00pm 29.8 32.4 22.0 63 5.3 NNE 11 17 6 9 1009.4 1009.3 0.0
15/05:30pm 31.4 33.7 22.1 57 6.3 NNE 13 17 7 9 1009.0 1008.9 0.0
15/05:00pm 33.5 35.7 20.3 46 8.8 ESE 9 11 5 6 1008.7 1008.6 0.0
15/04:30pm 33.5 34.7 19.9 44 9.0 ENE 13 20 7 11 1008.5 1008.4 0.0
15/04:00pm 33.5 34.9 19.6 44 9.2 E 11 19 6 10 1008.4 1008.3 0.0
15/03:30pm 34.5 35.2 19.7 41 9.8 E 15 20 8 11 1008.5 1008.4 0.0
15/03:00pm 34.5 34.3 18.5 38 10.5 ESE 17 26 9 14 1008.7 1008.6 0.0
15/02:30pm 35.1 35.9 19.1 39 10.6 E 13 20 7 11 1009.1 1009.0 0.0
15/02:00pm 34.8 35.1 18.0 37 10.9 ESE 13 24 7 13 1009.5 1009.4 0.0
15/01:30pm 34.9 34.3 17.6 35 11.2 ESE 17 24 9 13 1009.8 1009.7 0.0
15/01:00pm 34.5 33.2 16.8 34 11.3 ESE 19 32 10 17 1010.1 1010.0 0.0
15/12:30pm 34.1 32.5 16.0 34 11.4 ESE 19 26 10 14 1010.6 1010.5 0.0
15/12:00pm 34.2 32.1 15.1 31 11.9 SE 20 30 11 16 1010.9 1010.8 0.0
15/11:30am 33.6 30.7 14.1 30 11.9 SE 22 32 12 17 1011.3 1011.2 0.0
15/11:00am 33.5 31.1 14.5 31 11.7 ESE 20 28 11 15 1011.7 1011.6 0.0
15/10:30am 31.9 29.2 13.6 32 11.0 SE 20 30 11 16 1012.1 1012.0 0.0
15/10:00am 30.9 28.4 14.1 36 10.2 ESE 20 28 11 15 1012.4 1012.3 0.0
15/09:30am 30.0 28.9 15.3 41 9.0 SE 15 22 8 12 1012.3 1012.2 0.0
15/09:00am 27.5 27.2 16.5 51 6.8 SSE 13 19 7 10 1012.4 1012.3 0.0
15/08:30am 24.0 24.7 17.0 65 4.3 SSW 9 11 5 6 1012.3 1012.2 0.0
15/08:00am 21.6 22.6 17.8 79 2.4 SW 9 11 5 6 1012.2 1012.1 0.0
15/07:30am 18.4 19.3 17.6 95 0.5 WSW 9 9 5 5 1012.1 1012.0 0.0
15/07:00am 17.3 19.6 16.7 96 0.4 CALM 0 0 0 0 1011.8 1011.7 0.0
15/06:30am 17.1 19.2 16.3 95 0.5 CALM 0 0 0 0 1011.4 1011.3 0.0
15/06:00am 16.9 18.9 16.1 95 0.5 CALM 0 0 0 0 1011.1 1011.0 0.0
15/05:30am 16.9 18.9 16.1 95 0.5 CALM 0 0 0 0 1010.9 1010.8 0.0
15/05:00am 17.0 19.2 16.4 96 0.4 CALM 0 0 0 0 1010.8 1010.7 0.0
15/04:30am 17.0 19.0 16.0 94 0.6 CALM 0 0 0 0 1010.7 1010.6 0.0
15/04:00am 17.1 19.1 16.0 93 0.6 CALM 0 0 0 0 1010.4 1010.3 0.0
15/03:30am 17.3 19.4 16.2 93 0.7 CALM 0 0 0 0 1010.5 1010.4 0.0
15/03:00am 17.6 19.8 16.6 94 0.6 CALM 0 4 0 2 1010.6 1010.5 0.0
15/02:30am 17.8 18.9 16.7 93 0.7 W 6 7 3 4 1010.6 1010.5 0.0
15/02:00am 18.0 20.4 16.9 93 0.7 CALM 0 0 0 0 1010.9 1010.8 0.0
15/01:30am 18.2 20.6 17.0 93 0.7 CALM 0 0 0 0 1011.3 1011.2 0.0
15/01:00am 18.4 19.6 16.9 91 0.9 WSW 6 7 3 4 1011.7 1011.6 0.0
15/12:30am 18.9 20.3 17.4 91 0.9 SW 6 7 3 4 1012.2 1012.1 0.0
15/12:00am 19.3 20.8 17.6 90 1.0 SSW 6 7 3 4 1012.3 1012.2 0.0
 
Date/Time
CST
Temp
°C
App
Temp
°C
Dew
Point
°C
Rel
Hum
%
Delta-T
°C
Wind Press
QNH
hPa
Press
MSL
hPa
Rain since
9am
mm
Dir  Spd
km/h
Gust
km/h
Spd
kts
Gust
kts
14/11:30pm 19.8 22.7 18.3 91 0.9 CALM 0 0 0 0 1012.5 1012.4 0.0
14/11:00pm 20.7 23.3 18.5 87 1.4 NNW 2 6 1 3 1012.7 1012.6 0.0
14/10:30pm 22.3 23.8 19.7 85 1.7 NNE 11 11 6 6 1012.8 1012.7 0.0
14/10:00pm 21.1 22.6 19.0 88 1.3 NNE 9 11 5 6 1013.0 1012.9 0.0
14/09:30pm 20.9 22.7 18.7 87 1.4 NE 7 9 4 5 1013.1 1013.0 0.0
14/09:00pm 20.0 22.3 17.8 87 1.4 NE 2 7 1 4 1013.0 1012.9 0.0
14/08:30pm 20.3 22.8 17.3 83 1.8 CALM 0 6 0 3 1012.6 1012.5 0.0
14/08:00pm 20.6 23.4 18.0 85 1.6 CALM 0 2 0 1 1012.0 1011.9 0.0
14/07:30pm 21.5 24.3 17.9 80 2.2 CALM 0 0 0 0 1011.6 1011.5 0.0
14/07:00pm 22.6 24.5 18.6 78 2.5 S 6 7 3 4 1011.4 1011.3 0.0
14/06:30pm 24.9 27.8 18.1 66 4.3 CALM 0 0 0 0 1011.0 1010.9 0.0
14/06:00pm 29.9 34.0 20.7 57 6.1 CALM 0 6 0 3 1010.6 1010.5 0.0
14/05:30pm 32.1 32.5 14.7 35 10.7 S 6 6 3 3 1010.3 1010.2 0.0
14/05:00pm 32.8 32.7 13.4 30 11.7 S 6 9 3 5 1010.0 1009.9 0.0
14/04:30pm 33.4 32.6 12.9 28 12.3 S 9 15 5 8 1009.9 1009.8 0.0
14/04:00pm 33.4 32.1 12.4 28 12.5 S 11 15 6 8 1009.8 1009.7 0.0
14/03:30pm 33.8 33.5 13.3 29 12.4 NE 7 17 4 9 1009.8 1009.7 0.0
14/03:00pm 33.9 33.1 12.8 28 12.7 S 9 15 5 8 1010.1 1010.0 0.0
14/02:30pm 33.6 32.1 12.0 27 12.8 ESE 11 17 6 9 1010.4 1010.3 0.0
14/02:00pm 33.4 31.7 12.4 28 12.5 ESE 13 17 7 9 1010.9 1010.8 0.0
14/01:30pm 33.7 32.6 13.2 29 12.4 SE 11 20 6 11 1011.3 1011.2 0.0
14/01:00pm 33.1 32.4 13.2 30 12.0 SE 9 17 5 9 1011.7 1011.6 0.0
14/12:30pm 32.6 30.5 11.2 27 12.5 ESE 13 20 7 11 1012.2 1012.1 0.0
14/12:00pm 31.6 29.3 10.3 27 12.2 SE 13 20 7 11 1012.8 1012.7 0.0
14/11:30am 31.3 28.0 9.5 26 12.3 SSE 17 24 9 13 1013.4 1013.3 0.0
14/11:00am 30.5 27.8 8.8 26 12.1 SE 13 19 7 10 1013.8 1013.7 0.0
14/10:30am 29.6 25.6 9.2 28 11.4 SE 20 26 11 14 1014.2 1014.1 0.0
14/10:00am 28.6 25.1 10.3 32 10.3 SE 19 26 10 14 1014.6 1014.5 0.0
14/09:30am 27.7 24.0 9.5 32 10.1 SE 19 28 10 15 1014.6 1014.5 0.0
14/09:00am 25.7 22.8 11.1 40 8.2 SE 17 24 9 13 1014.5 1014.4 0.0
14/08:30am 22.7 21.6 13.2 55 5.5 S 11 15 6 8 1014.5 1014.4 0.0
14/08:00am 19.9 19.8 14.0 69 3.4 SW 7 11 4 6 1014.5 1014.4 0.0
14/07:30am 17.0 17.0 15.3 90 1.0 WSW 9 9 5 5 1014.2 1014.1 0.0
14/07:00am 14.1 13.5 13.5 96 0.3 WSW 9 9 5 5 1013.8 1013.7 0.0
14/06:30am 13.2 12.6 12.3 94 0.5 WSW 7 9 4 5 1013.5 1013.4 0.0
14/06:00am 13.4 12.8 12.3 93 0.6 WSW 7 9 4 5 1013.4 1013.3 0.0
14/05:30am 13.6 13.1 12.5 93 0.6 WSW 7 7 4 4 1013.1 1013.0 0.0
14/05:00am 13.9 13.4 12.6 92 0.7 WSW 7 7 4 4 1013.1 1013.0 0.0
14/04:30am 14.2 14.0 12.9 92 0.7 SW 6 7 3 4 1013.0 1012.9 0.0
14/04:00am 14.6 14.6 13.6 94 0.6 SSW 6 6 3 3 1012.9 1012.8 0.0
14/03:30am 14.7 14.6 13.4 92 0.7 SSW 6 7 3 4 1012.8 1012.7 0.0
14/03:00am 15.1 15.2 13.8 92 0.7 S 6 9 3 5 1012.9 1012.8 0.0
14/02:30am 15.3 15.4 14.0 92 0.7 S 6 6 3 3 1012.9 1012.8 0.0
14/02:00am 15.7 15.8 14.4 92 0.7 SSW 7 7 4 4 1013.0 1012.9 0.0
14/01:30am 16.0 17.6 14.9 93 0.6 CALM 0 0 0 0 1013.0 1012.9 0.0
14/01:00am 16.2 16.7 14.9 92 0.7 S 6 7 3 4 1013.2 1013.1 0.0
14/12:30am 16.7 18.4 15.2 91 0.9 CALM 0 0 0 0 1013.4 1013.3 0.0
14/12:00am 16.9 18.7 15.4 91 0.9 CALM 0 0 0 0 1013.6 1013.5 0.0
 
Date/Time
CST
Temp
°C
App
Temp
°C
Dew
Point
°C
Rel
Hum
%
Delta-T
°C
Wind Press
QNH
hPa
Press
MSL
hPa
Rain since
9am
mm
Dir  Spd
km/h
Gust
km/h
Spd
kts
Gust
kts
13/11:30pm 17.4 19.4 16.1 92 0.8 CALM 0 0 0 0 1013.8 1013.7 0.0
13/11:00pm 17.7 19.7 16.0 90 1.0 CALM 0 6 0 3 1013.9 1013.8 0.0
13/10:30pm 18.1 19.1 16.4 90 1.0 SW 6 7 3 4 1014.1 1014.0 0.0
13/10:00pm 18.4 19.3 16.7 90 1.0 WSW 7 9 4 5 1014.1 1014.0 0.0
13/09:30pm 18.7 21.1 17.0 90 1.0 CALM 0 0 0 0 1013.9 1013.8 0.0
13/09:00pm 19.2 21.7 17.2 88 1.2 CALM 0 0 0 0 1013.7 1013.6 0.0
13/08:30pm 19.6 22.2 17.6 88 1.2 CALM 0 0 0 0 1013.5 1013.4 0.0
13/08:00pm 20.2 21.5 17.2 83 1.8 W 6 7 3 4 1013.2 1013.1 0.0
13/07:30pm 21.1 23.9 17.9 82 2.0 CALM 0 0 0 0 1012.9 1012.8 0.0
13/07:00pm 22.4 25.4 18.4 78 2.5 CALM 0 0 0 0 1012.5 1012.4 0.0
13/06:30pm 24.6 27.8 18.8 70 3.7 CALM 0 0 0 0 1012.2 1012.1 0.0
13/06:00pm 29.2 33.0 20.1 58 6.0 CALM 0 0 0 0 1011.9 1011.8 0.0
13/05:30pm 31.1 31.9 15.9 40 9.5 SE 6 7 3 4 1011.6 1011.5 0.0
13/05:00pm 31.8 31.1 13.1 32 11.2 SSE 9 11 5 6 1011.3 1011.2 0.0
13/04:30pm 32.4 31.3 13.1 31 11.6 SSE 11 17 6 9 1011.2 1011.1 0.0
13/04:00pm 32.7 31.3 12.3 28 12.1 SSE 11 19 6 10 1011.1 1011.0 0.0
13/03:30pm 32.8 31.5 12.4 29 12.1 SSE 11 17 6 9 1011.3 1011.2 0.0
13/03:00pm 32.9 31.8 13.0 29 11.9 SE 11 22 6 12 1011.5 1011.4 0.0
13/02:30pm 32.8 32.3 13.9 31 11.5 SE 9 22 5 12 1011.8 1011.7 0.0
13/02:00pm 32.6 31.2 12.3 29 12.0 SSE 11 22 6 12 1012.1 1012.0 0.0
13/01:30pm 32.0 29.7 11.7 28 11.9 SSE 15 20 8 11 1012.6 1012.5 0.0
13/01:00pm 31.9 30.1 12.2 30 11.6 SE 13 22 7 12 1013.2 1013.1 0.0
13/12:30pm 31.3 28.8 11.1 29 11.7 SE 15 30 8 16 1013.8 1013.7 0.0
13/12:00pm 31.0 29.2 13.3 34 10.6 SE 15 24 8 13 1014.3 1014.2 0.0
13/11:30am 30.7 28.3 12.6 33 10.7 ESE 17 30 9 16 1014.8 1014.7 0.0
13/11:00am 29.9 26.9 11.9 33 10.5 SE 19 26 10 14 1015.1 1015.0 0.0
13/10:30am 29.2 25.4 11.3 33 10.3 SE 22 32 12 17 1015.4 1015.3 0.0
13/10:00am 28.2 24.3 10.9 34 9.8 SE 22 33 12 18 1015.7 1015.6 0.0
13/09:30am 27.6 24.4 12.0 38 9.0 SE 20 32 11 17 1015.7 1015.6 0.0
13/09:00am 26.3 23.8 12.4 42 8.0 SSE 17 24 9 13 1015.6 1015.5 0.0
13/08:30am 23.7 21.9 13.3 52 6.0 SSE 15 20 8 11 1015.5 1015.4 0.0

Other formats

Comma delimited format used in spreadsheet applications
http://www.bom.gov.au/fwo/IDD60801/IDD60801.94152.axf

JavaScript Object Notation format (JSON) in row-major order
http://www.bom.gov.au/fwo/IDD60801/IDD60801.94152.json

Data quality

Most of these data are generated automatically and are frequently updated. Quality checks on data are not normally performed. It is possible for incorrect values to appear. Refer to information at About Latest Weather Observations and please check the disclaimer before using these data.